Airfield :
LOGIN :

Register | Disclaimer

   EN    FR    IT 

 










Legend :    VFR   Marginal VFR   IFR   Intensive IFR   Very Intensive IFR
Visi :
Ceiling :
>= 8 km
>= 3000ft
5 to 8 km
1000 to 3000 ft
1500m to 5 km
500 to 1000 ft
800 to 1500m
200 to 500 ft
< 800m
< 200 ft
Symbols :   Thunderstorms  Fog  Heavy snow  Heavy precipitations  Wind > 20 kt
SIGMETs :     Misc.  Thunderstorms  Icing  Turbulence  Mountain Waves  Volcanic Ashes






- Airport Elevation : 46 ft
- IATA code : SNN


EINN - Shannon

CURRENT METAR :
  • 150830Z 02008KT 9999 FEW005 FEW018CB SCT044 BKN140 17/16 Q1003 NOSIG

EXPIRED METARs :
  • 150800Z 05006KT 9999 FEW003 FEW018CB SCT043 BKN130 16/16 Q1003 TEMPO 4000 SHRA
  • 150730Z 02005KT 7000 -SHRA FEW003 FEW018CB BKN044 16/15 Q1003 TEMPO 4000 SHRA
  • 150700Z 33006KT 6000 -SHRA FEW002 FEW018CB BKN044 16/15 Q1003 TEMPO 4000 SHRA
  • 150630Z 01004KT 9000 FEW004 SCT040 BKN100 16/15 Q1002 TEMPO 4000 SHRA

TAF TAF EINN
Valid from the 15 at 06:00 until the 16 at 06:00 UTC


150500Z 1506/1606 VRB03KT 9999 FEW005
PROB30
TEMPO 1506/1507 1500 BR BKN003
PROB40
TEMPO 1507/1515 4000 SHRA SCT020CB
BECMG 1508/1510 01011KT
PROB30
TEMPO 1510/1514 2500 TSRA BKN010 BKN020CB
TEMPO 1515/1606 01015G25KT



MET'MAP, your aeronautical weather chart ! - Copyright ORBIFLY December 2007 - Disclaimer

ORBIFLY MET'MAP TEAM :

Programming & Development : Alexandra Zaïnal
Original concept : Baudouin d'Aumeries
Technical & hardware support : Manuel Goepfert
Assistance : Marc-Olivier Méhu




SOURCES & CREDITS :

   NOAA